Time;durP1;ratioP1;P1;durP2;ratioP2;P2;SDS_P1;SDS_P2;PMS_P1;PMS_P2;Temp;Humidity;BMP_temperature;BMP_pressure;BME280_temperature;BME280_humidity;BME280_pressure;Samples;Min_cycle;Max_cycle;Signal;HPM_P1;HPM_P2
2021/08/03 00:00:18;;;;;;;6.05;2.03;;;18.30;78.00;;;;;;5095799;28;20136;-63
2021/08/03 00:02:46;;;;;;;3.60;1.92;;;18.40;77.90;;;;;;5087286;28;20161;-61
2021/08/03 00:05:20;;;;;;;3.88;1.77;;;18.50;76.90;;;;;;5087937;28;20634;-61
2021/08/03 00:07:54;;;;;;;5.00;2.10;;;18.70;77.30;;;;;;5087548;28;20051;-60
2021/08/03 00:10:24;;;;;;;3.75;1.27;;;18.90;75.60;;;;;;5087637;28;20494;-63
2021/08/03 00:12:53;;;;;;;5.38;1.80;;;19.00;75.30;;;;;;5087313;28;20030;-60
2021/08/03 00:15:23;;;;;;;5.70;1.85;;;19.20;74.10;;;;;;5086987;28;20060;-56
2021/08/03 00:17:55;;;;;;;3.65;1.50;;;19.30;73.90;;;;;;5068939;28;20031;-59
2021/08/03 00:20:22;;;;;;;;;;;19.50;73.00;;;;;;5087860;28;20028;-57
2021/08/03 00:22:56;;;;;;;6.05;2.30;;;19.60;73.10;;;;;;5087325;28;19907;-59
2021/08/03 00:25:26;;;;;;;4.85;1.80;;;19.70;72.30;;;;;;5087616;28;20024;-57
2021/08/03 00:27:54;;;;;;;5.45;1.88;;;19.80;72.20;;;;;;5086490;28;20042;-55
2021/08/03 00:30:26;;;;;;;6.05;1.77;;;20.00;71.40;;;;;;5086273;28;20510;-56
2021/08/03 00:32:54;;;;;;;4.22;1.83;;;20.10;70.60;;;;;;5087248;28;20077;-61
2021/08/03 00:35:23;;;;;;;5.63;1.95;;;20.10;70.60;;;;;;5069210;28;20028;-61
2021/08/03 00:37:51;;;;;;;9.68;2.28;;;20.10;70.30;;;;;;5087147;28;20436;-62
2021/08/03 00:40:19;;;;;;;5.53;1.85;;;20.20;70.10;;;;;;5087335;28;20482;-57
2021/08/03 00:42:47;;;;;;;6.55;2.20;;;20.30;70.30;;;;;;5086893;28;20155;-59
2021/08/03 00:45:15;;;;;;;3.88;1.80;;;20.30;69.80;;;;;;5087210;28;20020;-58
2021/08/03 00:47:42;;;;;;;4.38;2.00;;;20.50;68.90;;;;;;5068857;28;20043;-55
2021/08/03 00:50:10;;;;;;;2.90;1.20;;;20.60;68.30;;;;;;5086547;28;20040;-57
2021/08/03 00:52:41;;;;;;;4.22;1.58;;;20.50;68.60;;;;;;5086618;28;20024;-59
2021/08/03 00:55:11;;;;;;;7.57;1.70;;;20.50;67.90;;;;;;5087198;28;20038;-57
2021/08/03 00:57:40;;;;;;;4.60;1.98;;;20.50;67.60;;;;;;5087326;28;20034;-57
2021/08/03 01:00:08;;;;;;;4.45;1.60;;;20.40;68.40;;;;;;5087131;28;20090;-58
2021/08/03 01:02:36;;;;;;;3.25;1.30;;;20.40;67.70;;;;;;5085702;28;20125;-56
2021/08/03 01:05:03;;;;;;;5.18;1.60;;;20.40;67.40;;;;;;5086604;28;20048;-59
2021/08/03 01:08:02;;;;;;;4.30;1.67;;;20.40;68.50;;;;;;5087180;28;20069;-61
2021/08/03 01:10:37;;;;;;;3.03;1.27;;;20.40;66.20;;;;;;5048340;28;20534;-58
2021/08/03 01:13:17;;;;;;;5.70;1.60;;;20.60;67.20;;;;;;5087090;28;20032;-59
2021/08/03 01:16:09;;;;;;;4.30;1.50;;;20.60;66.90;;;;;;5086353;28;20050;-54
2021/08/03 01:18:42;;;;;;;2.58;0.95;;;20.60;68.10;;;;;;5087106;28;20024;-60
2021/08/03 01:21:45;;;;;;;2.42;1.15;;;20.70;66.50;;;;;;5086940;28;20028;-61
2021/08/03 01:24:15;;;;;;;6.05;1.60;;;20.70;66.50;;;;;;5086025;28;20028;-62
2021/08/03 01:27:16;;;;;;;3.38;0.98;;;20.80;66.00;;;;;;5086153;28;20047;-62
2021/08/03 01:29:45;;;;;;;4.72;1.23;;;20.90;65.40;;;;;;5086552;28;20127;-61
2021/08/03 01:32:14;;;;;;;1.88;1.20;;;20.90;65.50;;;;;;5086395;28;20035;-61
2021/08/03 01:34:46;;;;;;;2.85;1.30;;;20.80;63.90;;;;;;5085877;28;20077;-65
2021/08/03 01:37:18;;;;;;;4.38;1.02;;;20.90;64.70;;;;;;5086317;28;20081;-62
2021/08/03 01:39:50;;;;;;;2.85;1.20;;;20.90;65.80;;;;;;5086074;28;20119;-60
2021/08/03 01:42:21;;;;;;;2.78;1.30;;;21.00;65.70;;;;;;5086258;28;20024;-60
2021/08/03 01:44:50;;;;;;;3.33;1.25;;;21.00;64.80;;;;;;5085238;28;20063;-55
2021/08/03 01:47:19;;;;;;;2.22;1.17;;;21.00;65.00;;;;;;5085703;28;20040;-55
2021/08/03 01:49:48;;;;;;;2.60;1.20;;;21.10;64.90;;;;;;5085865;28;20032;-61
2021/08/03 01:52:17;;;;;;;3.22;1.38;;;21.00;63.90;;;;;;5085845;28;20078;-63
2021/08/03 01:54:50;;;;;;;2.67;0.82;;;21.10;62.30;;;;;;5085296;28;20167;-62
2021/08/03 01:57:18;;;;;;;2.40;1.08;;;21.10;62.80;;;;;;5085736;28;20455;-59
2021/08/03 01:59:47;;;;;;;3.38;0.80;;;21.20;63.40;;;;;;5085378;28;20020;-56
2021/08/03 02:02:17;;;;;;;1.70;0.80;;;21.20;61.10;;;;;;5085678;28;20060;-60
2021/08/03 02:04:49;;;;;;;3.80;1.23;;;21.20;63.30;;;;;;5066057;28;20629;-59
2021/08/03 02:07:19;;;;;;;1.85;0.80;;;21.20;60.50;;;;;;5084142;28;20074;-61
2021/08/03 02:09:48;;;;;;;2.28;0.90;;;21.30;62.70;;;;;;5085750;28;20120;-60
2021/08/03 02:12:16;;;;;;;1.50;0.73;;;21.20;62.70;;;;;;5085128;28;20039;-60
2021/08/03 02:14:47;;;;;;;2.50;0.68;;;21.20;61.90;;;;;;5066662;28;20043;-58
2021/08/03 02:17:25;;;;;;;1.85;0.60;;;21.00;63.40;;;;;;5085439;28;20026;-60
2021/08/03 02:19:52;;;;;;;2.00;0.80;;;21.10;62.40;;;;;;5085475;28;20028;-61
2021/08/03 02:22:20;;;;;;;2.28;0.95;;;21.40;62.60;;;;;;5085429;28;20016;-57
2021/08/03 02:24:48;;;;;;;3.95;1.05;;;21.40;61.60;;;;;;5084923;28;20032;-59
2021/08/03 02:27:15;;;;;;;2.13;0.65;;;21.60;58.80;;;;;;5084142;28;20546;-58
2021/08/03 02:29:45;;;;;;;1.55;0.57;;;21.60;60.70;;;;;;5084855;28;20131;-61
2021/08/03 02:32:30;;;;;;;1.55;0.70;;;21.70;61.10;;;;;;5085368;28;20101;-64
2021/08/03 02:35:17;;;;;;;1.25;0.70;;;21.60;60.70;;;;;;5084689;28;20020;-62
2021/08/03 02:38:12;;;;;;;4.35;0.70;;;21.70;60.70;;;;;;5085077;28;20036;-58
2021/08/03 02:40:43;;;;;;;4.30;1.02;;;21.60;59.40;;;;;;5061217;28;20058;-62
2021/08/03 02:43:14;;;;;;;1.70;0.93;;;21.70;61.20;;;;;;5087376;28;20050;-61
2021/08/03 02:45:42;;;;;;;4.45;0.88;;;21.70;59.10;;;;;;5096370;28;20095;-63
2021/08/03 02:48:14;;;;;;;1.60;0.68;;;21.90;59.00;;;;;;5093496;28;20088;-62
2021/08/03 02:50:49;;;;;;;2.00;0.82;;;21.70;56.10;;;;;;5095060;28;20027;-62
2021/08/03 02:53:27;;;;;;;1.83;0.40;;;21.70;59.40;;;;;;5088506;28;20027;-60
2021/08/03 02:56:09;;;;;;;2.80;0.50;;;21.60;59.60;;;;;;5081002;28;20027;-65
2021/08/03 02:58:58;;;;;;;0.95;0.50;;;21.70;59.00;;;;;;5092167;28;20490;-64
2021/08/03 03:01:31;;;;;;;2.42;0.90;;;21.70;59.10;;;;;;5099326;28;20023;-57
2021/08/03 03:04:10;;;;;;;1.23;0.70;;;21.80;59.60;;;;;;5086713;28;20062;-61
2021/08/03 03:06:39;;;;;;;1.35;0.70;;;21.90;55.30;;;;;;5091924;28;20044;-61
2021/08/03 03:09:07;;;;;;;2.60;0.60;;;22.00;59.10;;;;;;5092962;28;20028;-57
2021/08/03 03:11:37;;;;;;;0.55;0.50;;;22.00;59.10;;;;;;5091654;28;20032;-61
2021/08/03 03:14:06;;;;;;;2.28;0.60;;;22.10;59.50;;;;;;5090781;28;20031;-63
2021/08/03 03:16:39;;;;;;;1.08;0.70;;;22.10;57.20;;;;;;5092067;28;20024;-62
2021/08/03 03:19:07;;;;;;;2.03;0.60;;;22.10;56.70;;;;;;5092220;28;20023;-63
2021/08/03 03:21:36;;;;;;;1.90;0.93;;;22.30;57.80;;;;;;5095046;28;20422;-58
2021/08/03 03:24:05;;;;;;;2.45;1.08;;;22.20;57.90;;;;;;5091375;28;20028;-61
2021/08/03 03:26:35;;;;;;;1.92;1.45;;;22.20;57.50;;;;;;5097187;28;20058;-60
2021/08/03 03:29:04;;;;;;;1.58;1.35;;;22.10;57.70;;;;;;5097794;28;20052;-56
2021/08/03 03:31:33;;;;;;;1.90;1.35;;;22.20;56.60;;;;;;5096421;28;20023;-63
2021/08/03 03:34:03;;;;;;;3.35;1.10;;;22.20;56.90;;;;;;5097337;28;20093;-61
2021/08/03 03:36:34;;;;;;;1.40;1.30;;;22.20;57.20;;;;;;5097147;28;20040;-58
2021/08/03 03:39:03;;;;;;;1.17;1.00;;;22.30;57.60;;;;;;5098071;28;20024;-62
2021/08/03 03:41:33;;;;;;;2.65;1.02;;;22.40;55.20;;;;;;5096141;28;20035;-60
2021/08/03 03:44:01;;;;;;;1.23;1.10;;;22.30;57.40;;;;;;5096569;28;20111;-62
2021/08/03 03:46:37;;;;;;;1.17;1.00;;;22.30;54.70;;;;;;5100044;28;20039;-61
2021/08/03 03:49:11;;;;;;;1.67;1.08;;;22.20;57.30;;;;;;5103217;28;20134;-64
2021/08/03 03:51:43;;;;;;;1.13;1.00;;;22.10;55.40;;;;;;5082519;28;20032;-58
2021/08/03 03:54:12;;;;;;;;;;;22.20;56.10;;;;;;5095015;28;21207;-61
2021/08/03 03:56:50;;;;;;;2.40;1.20;;;22.20;57.80;;;;;;5098826;28;19908;-61
2021/08/03 03:59:21;;;;;;;1.58;0.90;;;22.10;54.80;;;;;;5090757;28;20032;-63
2021/08/03 04:01:55;;;;;;;1.33;0.77;;;22.10;58.30;;;;;;5092166;28;20036;-57
2021/08/03 04:04:24;;;;;;;1.70;0.63;;;22.20;56.40;;;;;;5088130;28;20842;-54
2021/08/03 04:07:02;;;;;;;1.25;0.77;;;22.20;57.30;;;;;;5076366;28;20035;-60
2021/08/03 04:09:29;;;;;;;1.48;0.90;;;22.20;56.20;;;;;;5095290;28;20080;-58
2021/08/03 04:11:56;;;;;;;0.85;0.70;;;22.30;56.00;;;;;;5096971;28;20415;-60
2021/08/03 04:14:30;;;;;;;1.52;0.90;;;22.30;57.50;;;;;;5096160;28;20024;-62
2021/08/03 04:16:58;;;;;;;0.65;0.50;;;22.40;55.00;;;;;;5095589;28;20035;-61
2021/08/03 04:19:26;;;;;;;0.75;0.60;;;22.50;56.10;;;;;;5082299;27;20031;-60
2021/08/03 04:21:53;;;;;;;0.63;0.60;;;22.60;55.80;;;;;;5100767;28;20027;-61
2021/08/03 04:24:21;;;;;;;1.23;0.68;;;22.60;54.80;;;;;;5094936;28;20024;-59
2021/08/03 04:26:49;;;;;;;1.77;0.32;;;22.70;54.60;;;;;;5095976;28;20504;-62
2021/08/03 04:29:16;;;;;;;1.05;0.50;;;22.70;54.90;;;;;;5098922;28;20055;-59
2021/08/03 04:31:44;;;;;;;0.75;0.75;;;22.70;54.20;;;;;;5099703;28;20031;-58
2021/08/03 04:34:11;;;;;;;0.88;0.55;;;22.70;55.20;;;;;;5094266;28;20547;-58
2021/08/03 04:36:38;;;;;;;2.28;0.55;;;22.70;53.80;;;;;;5093587;28;20097;-58
2021/08/03 04:39:10;;;;;;;0.60;0.50;;;22.80;54.00;;;;;;5098402;28;20339;-60
2021/08/03 04:41:39;;;;;;;1.08;0.50;;;22.80;53.90;;;;;;5094798;28;20031;-63
2021/08/03 04:44:07;;;;;;;0.65;0.40;;;22.80;54.80;;;;;;5093646;28;20517;-63
2021/08/03 04:46:37;;;;;;;1.27;0.52;;;22.70;55.00;;;;;;5098158;28;20036;-65
2021/08/03 04:49:05;;;;;;;1.10;0.65;;;22.60;51.50;;;;;;5095015;28;20026;-59
2021/08/03 04:51:32;;;;;;;0.70;0.40;;;22.50;55.50;;;;;;5097780;28;20035;-64
2021/08/03 04:53:59;;;;;;;0.93;0.40;;;22.60;54.60;;;;;;5093296;28;20024;-60
2021/08/03 04:56:27;;;;;;;2.38;0.40;;;22.60;53.00;;;;;;5099392;28;20404;-64
2021/08/03 04:58:54;;;;;;;0.93;0.32;;;22.70;52.10;;;;;;5094705;28;20063;-62
2021/08/03 05:01:25;;;;;;;0.50;0.40;;;22.60;54.00;;;;;;5098365;28;20183;-60
2021/08/03 05:03:52;;;;;;;0.30;0.30;;;22.70;54.20;;;;;;5076221;28;20123;-62
2021/08/03 05:06:19;;;;;;;0.52;0.43;;;22.70;54.80;;;;;;5094954;28;20058;-63
2021/08/03 05:08:47;;;;;;;0.55;0.52;;;22.70;51.90;;;;;;5092989;28;20079;-61
2021/08/03 05:11:14;;;;;;;0.88;0.50;;;22.80;51.90;;;;;;5101636;28;20027;-62
2021/08/03 05:13:42;;;;;;;0.40;0.30;;;22.90;54.20;;;;;;5093625;28;20031;-63
2021/08/03 05:16:09;;;;;;;1.33;0.47;;;22.80;51.50;;;;;;5094938;28;20431;-61
2021/08/03 05:18:37;;;;;;;2.03;0.50;;;22.90;52.20;;;;;;5075790;28;20024;-62
2021/08/03 05:21:04;;;;;;;0.63;0.40;;;22.90;53.90;;;;;;5096489;28;20146;-60
2021/08/03 05:23:33;;;;;;;1.85;0.50;;;23.00;52.50;;;;;;5096028;28;20024;-60
2021/08/03 05:26:01;;;;;;;0.93;0.35;;;23.00;52.20;;;;;;5106553;28;20544;-61
2021/08/03 05:28:28;;;;;;;1.45;0.30;;;23.10;53.80;;;;;;5106174;28;20035;-59
2021/08/03 05:30:55;;;;;;;1.00;0.40;;;23.10;51.90;;;;;;5106279;28;20031;-61
2021/08/03 05:33:23;;;;;;;1.77;0.80;;;23.10;52.10;;;;;;5106348;28;20505;-61
2021/08/03 05:35:50;;;;;;;0.80;0.50;;;23.10;53.00;;;;;;5106579;28;20111;-58
2021/08/03 05:38:17;;;;;;;0.85;0.43;;;23.10;53.00;;;;;;5106090;28;20466;-60
2021/08/03 05:40:46;;;;;;;2.05;0.20;;;23.10;52.40;;;;;;5106034;28;20490;-61
2021/08/03 05:43:14;;;;;;;1.13;0.40;;;23.10;53.10;;;;;;5106027;28;20070;-61
2021/08/03 05:45:42;;;;;;;0.73;0.35;;;23.10;51.90;;;;;;5089316;28;20173;-60
2021/08/03 05:48:09;;;;;;;1.05;0.50;;;23.10;53.30;;;;;;5096420;28;20367;-59
2021/08/03 05:50:37;;;;;;;2.85;0.30;;;23.00;53.10;;;;;;5094260;28;20065;-62
2021/08/03 05:53:04;;;;;;;0.20;0.20;;;23.00;53.10;;;;;;5098081;28;20027;-60
2021/08/03 05:55:31;;;;;;;1.73;0.32;;;23.00;53.20;;;;;;5094048;28;20044;-63
2021/08/03 05:58:02;;;;;;;1.30;0.20;;;22.80;52.50;;;;;;5093771;28;20032;-61
2021/08/03 06:00:30;;;;;;;3.47;0.50;;;22.70;50.90;;;;;;5095808;28;20027;-61
2021/08/03 06:02:57;;;;;;;1.35;0.40;;;22.70;50.80;;;;;;5093010;28;20040;-62
2021/08/03 06:05:24;;;;;;;0.47;0.30;;;22.60;51.30;;;;;;5093330;28;20082;-61
2021/08/03 06:07:54;;;;;;;0.25;0.22;;;22.40;52.90;;;;;;5090849;28;20046;-61
2021/08/03 06:10:24;;;;;;;0.90;0.30;;;22.40;52.70;;;;;;5094649;28;20031;-61
2021/08/03 06:12:54;;;;;;;0.45;0.22;;;22.30;52.90;;;;;;5087398;28;20115;-60
2021/08/03 06:15:22;;;;;;;0.40;0.20;;;22.10;54.10;;;;;;5093369;28;20024;-61
2021/08/03 06:18:19;;;;;;;0.50;0.30;;;22.10;54.70;;;;;;5099224;28;20032;-59
2021/08/03 06:20:49;;;;;;;1.95;0.40;;;21.90;52.40;;;;;;5083898;28;20486;-62
2021/08/03 06:23:17;;;;;;;1.58;0.68;;;21.70;54.90;;;;;;5096448;28;20652;-59
2021/08/03 06:25:45;;;;;;;0.47;0.20;;;21.60;53.80;;;;;;5094396;28;20053;-61
2021/08/03 06:28:15;;;;;;;1.23;0.40;;;21.30;54.10;;;;;;5089104;28;20043;-61
2021/08/03 06:30:43;;;;;;;3.50;0.60;;;21.20;55.20;;;;;;5093313;28;20052;-61
2021/08/03 06:33:10;;;;;;;1.15;0.47;;;20.90;54.90;;;;;;5094533;28;20020;-61
2021/08/03 06:35:38;;;;;;;0.20;0.20;;;20.90;55.40;;;;;;5091292;28;20035;-62
2021/08/03 06:38:05;;;;;;;0.68;0.20;;;20.80;53.40;;;;;;5089375;28;20024;-55
2021/08/03 06:40:33;;;;;;;0.28;0.20;;;20.60;57.30;;;;;;5083607;28;20035;-66
2021/08/03 06:43:10;;;;;;;0.50;0.50;;;20.40;58.60;;;;;;5089011;28;20035;-63
2021/08/03 06:45:39;;;;;;;0.40;0.40;;;20.30;56.80;;;;;;5092683;28;20012;-57
2021/08/03 06:48:09;;;;;;;1.02;0.40;;;20.20;59.30;;;;;;5085928;28;20055;-58
2021/08/03 06:51:03;;;;;;;2.17;0.60;;;20.10;57.80;;;;;;5095040;28;20474;-60
2021/08/03 06:53:31;;;;;;;0.43;0.30;;;20.00;59.40;;;;;;5036273;28;20044;-64
2021/08/03 06:56:01;;;;;;;0.82;0.20;;;19.90;58.10;;;;;;5100499;28;20112;-61
2021/08/03 06:58:42;;;;;;;0.25;0.20;;;19.80;60.90;;;;;;5088371;28;20092;-58
2021/08/03 07:01:16;;;;;;;0.45;0.30;;;19.70;59.90;;;;;;5096492;28;20016;-59
2021/08/03 07:03:48;;;;;;;0.40;0.20;;;19.70;58.10;;;;;;5092579;28;20041;-64
2021/08/03 07:06:20;;;;;;;1.42;0.63;;;19.60;60.50;;;;;;5093137;28;20213;-63
2021/08/03 07:08:48;;;;;;;0.52;0.30;;;19.50;60.50;;;;;;5087874;28;20126;-57
2021/08/03 07:11:16;;;;;;;0.80;0.35;;;19.50;61.60;;;;;;5103737;28;20461;-63
2021/08/03 07:13:44;;;;;;;0.15;0.15;;;19.40;61.70;;;;;;5095141;28;20026;-60
2021/08/03 07:16:12;;;;;;;0.32;0.20;;;19.30;62.00;;;;;;5096013;28;20159;-62
2021/08/03 07:18:43;;;;;;;1.75;0.30;;;19.30;61.50;;;;;;5085579;28;20037;-58
2021/08/03 07:21:12;;;;;;;0.55;0.22;;;19.30;60.70;;;;;;5099561;28;20030;-63
2021/08/03 07:23:44;;;;;;;0.38;0.20;;;19.20;60.50;;;;;;5091809;28;20031;-57
2021/08/03 07:26:11;;;;;;;0.37;0.37;;;19.20;59.70;;;;;;5069090;28;20020;-59
2021/08/03 07:28:38;;;;;;;0.50;0.40;;;19.20;62.20;;;;;;5083746;28;20422;-61
2021/08/03 07:31:06;;;;;;;0.63;0.20;;;19.20;61.70;;;;;;5096114;28;20039;-62
2021/08/03 07:33:33;;;;;;;0.93;0.25;;;19.10;62.10;;;;;;5096292;28;20036;-59
2021/08/03 07:36:01;;;;;;;0.50;0.38;;;19.00;62.40;;;;;;5093860;28;20031;-60
2021/08/03 07:38:28;;;;;;;0.32;0.30;;;19.00;62.10;;;;;;5085005;28;20506;-58
2021/08/03 07:40:55;;;;;;;2.40;0.20;;;19.00;61.40;;;;;;5092495;28;20171;-59
2021/08/03 07:43:24;;;;;;;0.70;0.43;;;18.90;62.10;;;;;;5094562;28;20053;-55
2021/08/03 07:45:51;;;;;;;0.32;0.25;;;18.90;61.80;;;;;;5073372;28;20077;-52
2021/08/03 07:48:19;;;;;;;1.15;0.63;;;18.90;61.30;;;;;;5072946;28;20934;-61
2021/08/03 07:50:46;;;;;;;1.58;0.50;;;18.80;61.00;;;;;;5097526;28;20557;-59
2021/08/03 07:53:14;;;;;;;0.40;0.32;;;18.80;62.60;;;;;;5069860;28;20058;-61
2021/08/03 07:55:41;;;;;;;0.95;0.43;;;18.80;61.80;;;;;;5091874;28;20032;-60
2021/08/03 07:58:09;;;;;;;0.93;0.40;;;18.70;61.90;;;;;;5092115;28;20036;-61
2021/08/03 08:00:37;;;;;;;0.40;0.30;;;18.70;61.30;;;;;;5095780;28;20040;-57
2021/08/03 08:03:04;;;;;;;0.77;0.30;;;18.70;61.40;;;;;;5095115;28;20141;-60
2021/08/03 08:05:32;;;;;;;0.65;0.43;;;18.70;61.20;;;;;;5091109;28;20402;-58
2021/08/03 08:08:00;;;;;;;0.35;0.28;;;18.60;62.40;;;;;;5090707;28;20059;-57
2021/08/03 08:10:27;;;;;;;0.88;0.30;;;18.60;61.40;;;;;;5094115;28;20028;-60
2021/08/03 08:12:55;;;;;;;0.60;0.30;;;18.50;62.20;;;;;;5098404;28;20457;-57
2021/08/03 08:15:22;;;;;;;0.30;0.22;;;18.50;62.20;;;;;;5098833;28;20031;-56
2021/08/03 08:17:50;;;;;;;2.63;0.60;;;18.50;61.60;;;;;;5078934;28;20111;-59
2021/08/03 08:20:17;;;;;;;1.00;0.50;;;18.40;61.70;;;;;;5097275;28;20055;-59
2021/08/03 08:22:45;;;;;;;1.02;0.40;;;18.40;62.40;;;;;;5079897;28;20523;-60
2021/08/03 08:25:14;;;;;;;0.80;0.30;;;18.30;62.80;;;;;;5098289;28;20040;-59
2021/08/03 08:27:42;;;;;;;0.30;0.20;;;18.30;62.80;;;;;;5095191;28;20058;-57
2021/08/03 08:30:10;;;;;;;1.08;0.35;;;18.30;63.20;;;;;;5093819;28;20051;-56
2021/08/03 08:32:37;;;;;;;0.50;0.30;;;18.30;62.80;;;;;;5077555;28;20028;-59
2021/08/03 08:35:05;;;;;;;1.55;0.50;;;18.30;62.80;;;;;;5096362;28;20027;-58
2021/08/03 08:37:33;;;;;;;0.80;0.50;;;18.20;63.10;;;;;;5094851;28;20111;-59
2021/08/03 08:40:00;;;;;;;4.65;0.22;;;18.20;63.00;;;;;;5087882;28;20082;-60
2021/08/03 08:42:29;;;;;;;0.50;0.30;;;18.20;62.90;;;;;;5098423;28;20020;-60
2021/08/03 08:44:57;;;;;;;2.70;0.45;;;18.10;62.80;;;;;;5075055;28;20044;-58
2021/08/03 08:47:26;;;;;;;1.00;0.32;;;18.10;62.70;;;;;;5098197;28;20521;-60
2021/08/03 08:49:56;;;;;;;0.47;0.30;;;18.10;63.00;;;;;;5090976;28;20084;-58
2021/08/03 08:52:23;;;;;;;2.63;0.73;;;18.00;63.30;;;;;;5090511;28;20028;-59
2021/08/03 08:54:50;;;;;;;3.95;1.63;;;18.00;63.40;;;;;;5098762;28;20538;-59
2021/08/03 08:57:18;;;;;;;15.55;8.50;;;18.00;63.40;;;;;;5098969;28;20054;-57
2021/08/03 08:59:45;;;;;;;37.67;19.98;;;17.90;62.70;;;;;;5091329;28;20062;-57
2021/08/03 09:02:13;;;;;;;65.88;34.55;;;17.90;63.30;;;;;;5105823;28;20445;-60
2021/08/03 09:04:43;;;;;;;67.82;36.75;;;17.90;63.20;;;;;;5105255;28;20393;-56
2021/08/03 09:07:11;;;;;;;78.68;40.88;;;17.80;63.20;;;;;;5091325;28;20407;-61
2021/08/03 09:09:43;;;;;;;100.78;56.00;;;17.90;64.00;;;;;;5093516;28;20023;-62
2021/08/03 09:12:13;;;;;;;158.60;86.47;;;17.80;63.40;;;;;;5091192;28;20047;-65
2021/08/03 09:14:42;;;;;;;182.85;100.78;;;17.80;64.10;;;;;;5101781;28;20490;-63
2021/08/03 09:17:11;;;;;;;196.57;106.90;;;17.80;63.90;;;;;;5093429;28;20048;-60
2021/08/03 09:19:42;;;;;;;177.07;99.72;;;17.80;64.20;;;;;;5098195;28;20057;-55
2021/08/03 09:22:19;;;;;;;178.00;102.20;;;17.80;64.20;;;;;;5094830;28;20065;-59
2021/08/03 09:25:12;;;;;;;187.60;105.65;;;17.80;63.70;;;;;;5092671;28;20855;-61
2021/08/03 09:27:43;;;;;;;195.20;110.80;;;17.80;64.40;;;;;;5095512;28;20470;-62
2021/08/03 09:30:28;;;;;;;194.60;109.07;;;17.80;64.30;;;;;;5100804;28;20061;-54
2021/08/03 09:32:56;;;;;;;188.20;111.65;;;17.80;63.60;;;;;;5093082;28;21135;-59
2021/08/03 09:35:26;;;;;;;201.55;111.82;;;17.80;64.10;;;;;;5074467;28;21955;-60
2021/08/03 09:37:56;;;;;;;206.90;112.82;;;17.80;64.60;;;;;;5097145;28;20052;-63
2021/08/03 09:40:24;;;;;;;195.85;112.57;;;17.80;64.60;;;;;;5094019;28;20024;-59
2021/08/03 09:43:25;;;;;;;201.77;115.53;;;17.80;63.80;;;;;;5093290;28;20027;-61
2021/08/03 09:45:52;;;;;;;206.52;118.07;;;17.70;64.40;;;;;;5092292;28;20055;-58
2021/08/03 09:48:24;;;;;;;213.90;118.97;;;17.80;64.80;;;;;;5093464;28;20028;-56
2021/08/03 09:51:05;;;;;;;203.93;120.43;;;17.70;64.80;;;;;;5095199;28;20483;-63
2021/08/03 09:53:54;;;;;;;224.57;128.07;;;17.70;64.50;;;;;;5089104;28;20023;-57
2021/08/03 09:56:27;;;;;;;230.77;130.25;;;17.70;64.70;;;;;;5094955;28;20113;-55
2021/08/03 09:59:01;;;;;;;240.07;137.77;;;17.70;64.70;;;;;;5096285;28;20108;-59
2021/08/03 10:01:38;;;;;;;232.30;135.60;;;17.70;64.50;;;;;;5095823;28;20024;-54
2021/08/03 10:04:10;;;;;;;237.55;139.75;;;17.70;64.60;;;;;;5091266;28;20036;-59
2021/08/03 10:06:39;;;;;;;229.95;136.75;;;17.60;64.80;;;;;;5092861;28;20032;-58
2021/08/03 10:09:09;;;;;;;247.80;141.77;;;17.60;64.90;;;;;;5096168;28;21175;-58
2021/08/03 10:11:37;;;;;;;241.43;144.55;;;17.60;64.80;;;;;;5092340;28;20056;-53
2021/08/03 10:14:06;;;;;;;251.38;145.90;;;17.60;65.00;;;;;;5094377;28;20032;-56
2021/08/03 10:16:34;;;;;;;236.02;140.40;;;17.60;64.90;;;;;;5075280;28;20118;-58
2021/08/03 10:19:02;;;;;;;234.82;141.77;;;17.60;64.70;;;;;;5094849;28;20067;-55
2021/08/03 10:21:55;;;;;;;237.40;142.82;;;17.50;65.10;;;;;;5091609;28;20127;-59
2021/08/03 10:24:32;;;;;;;234.52;139.82;;;17.60;65.10;;;;;;5092694;28;20038;-56
2021/08/03 10:27:13;;;;;;;241.77;139.80;;;17.50;65.00;;;;;;5096339;28;20092;-57
2021/08/03 10:29:54;;;;;;;232.27;140.15;;;17.50;65.00;;;;;;5092529;28;20131;-58
2021/08/03 10:32:39;;;;;;;230.95;139.20;;;17.50;65.10;;;;;;5092897;28;20032;-60
2021/08/03 10:35:18;;;;;;;231.60;131.82;;;17.50;64.70;;;;;;5088809;28;20038;-60
2021/08/03 10:38:15;;;;;;;228.40;137.07;;;17.40;65.10;;;;;;5074004;28;20488;-62
2021/08/03 10:40:49;;;;;;;229.73;134.27;;;17.40;65.30;;;;;;5090219;28;20077;-60
2021/08/03 10:43:36;;;;;;;211.45;132.05;;;17.40;65.00;;;;;;5092738;28;20032;-58
2021/08/03 10:46:09;;;;;;;231.82;134.20;;;17.40;65.30;;;;;;5093778;28;20112;-61
2021/08/03 10:48:41;;;;;;;226.43;134.77;;;17.40;65.40;;;;;;5096136;28;20409;-55
2021/08/03 10:51:15;;;;;;;215.90;128.30;;;17.40;65.30;;;;;;5098077;28;20077;-55
2021/08/03 10:54:12;;;;;;;203.63;127.65;;;17.30;64.90;;;;;;5091418;28;20015;-58
2021/08/03 10:56:57;;;;;;;220.70;130.73;;;17.30;65.30;;;;;;5095673;28;20032;-57
2021/08/03 10:59:37;;;;;;;213.40;128.80;;;17.30;65.20;;;;;;5091651;28;20053;-59
2021/08/03 11:02:09;;;;;;;216.77;127.82;;;17.30;65.50;;;;;;5079363;28;20114;-59
2021/08/03 11:04:43;;;;;;;216.80;132.80;;;17.20;65.60;;;;;;5092996;28;20045;-65
2021/08/03 11:07:34;;;;;;;208.95;127.88;;;17.20;65.80;;;;;;5074752;28;20097;-60
2021/08/03 11:10:08;;;;;;;196.00;119.68;;;17.20;65.60;;;;;;5095654;28;20034;-60
2021/08/03 11:12:38;;;;;;;199.98;123.30;;;17.20;65.70;;;;;;5091743;28;20135;-58
2021/08/03 11:15:25;;;;;;;193.85;119.78;;;17.20;65.80;;;;;;5087332;28;20028;-59
2021/08/03 11:18:13;;;;;;;194.00;116.25;;;17.20;65.60;;;;;;5091662;28;20024;-62
2021/08/03 11:20:44;;;;;;;191.38;116.05;;;17.10;65.70;;;;;;5095683;28;20024;-56
2021/08/03 11:23:18;;;;;;;184.65;114.40;;;17.10;65.60;;;;;;5091986;28;20039;-63
2021/08/03 11:25:48;;;;;;;180.50;111.03;;;17.10;65.50;;;;;;5093403;28;20115;-59
2021/08/03 11:28:19;;;;;;;187.68;112.60;;;17.10;65.40;;;;;;5088440;28;20065;-59
2021/08/03 11:30:49;;;;;;;173.18;108.25;;;17.10;65.60;;;;;;5095604;28;20040;-61
2021/08/03 11:33:19;;;;;;;184.50;109.68;;;17.10;65.70;;;;;;5096142;28;20032;-60
2021/08/03 11:35:47;;;;;;;173.93;105.75;;;17.10;65.80;;;;;;5085626;28;20081;-61
2021/08/03 11:38:22;;;;;;;177.20;110.70;;;17.10;65.60;;;;;;5100230;28;20031;-58
2021/08/03 11:40:57;;;;;;;163.02;104.22;;;17.10;66.30;;;;;;5094053;28;20035;-61
2021/08/03 11:43:27;;;;;;;163.60;101.28;;;17.10;65.80;;;;;;5095582;28;20470;-60
2021/08/03 11:45:54;;;;;;;163.43;100.60;;;17.00;65.50;;;;;;5074167;28;20496;-64
2021/08/03 11:48:27;;;;;;;161.93;99.32;;;17.00;66.20;;;;;;5103217;28;20067;-62
2021/08/03 11:50:55;;;;;;;159.25;95.28;;;16.90;66.50;;;;;;5099202;28;20513;-59
2021/08/03 11:53:24;;;;;;;161.70;93.93;;;16.90;65.70;;;;;;5098040;28;20028;-60
2021/08/03 11:55:57;;;;;;;157.45;96.03;;;16.90;65.90;;;;;;5104548;28;20034;-60
2021/08/03 11:58:30;;;;;;;152.20;93.93;;;16.90;65.90;;;;;;5108370;28;20079;-61
2021/08/03 12:01:00;;;;;;;148.25;92.65;;;16.90;66.00;;;;;;5108665;28;20055;-61
2021/08/03 12:03:37;;;;;;;136.18;86.07;;;16.90;66.10;;;;;;5108689;28;20028;-60
2021/08/03 12:06:07;;;;;;;140.63;85.75;;;16.90;66.10;;;;;;5108388;28;20097;-60
2021/08/03 12:08:39;;;;;;;134.15;81.75;;;16.80;65.90;;;;;;5108505;28;20402;-59
2021/08/03 12:11:08;;;;;;;127.38;81.45;;;16.80;65.90;;;;;;5108057;28;20023;-60
2021/08/03 12:13:37;;;;;;;131.32;82.13;;;16.80;66.10;;;;;;5107714;28;20150;-61
2021/08/03 12:16:07;;;;;;;125.40;77.93;;;16.80;66.10;;;;;;5108002;28;20031;-61
2021/08/03 12:18:44;;;;;;;120.32;75.97;;;16.80;66.20;;;;;;5108792;28;20040;-60
2021/08/03 12:21:12;;;;;;;124.25;73.25;;;16.70;65.80;;;;;;5107249;28;20027;-59
2021/08/03 12:23:41;;;;;;;111.30;72.20;;;16.70;65.90;;;;;;5107756;28;20316;-60
2021/08/03 12:26:24;;;;;;;108.72;70.28;;;16.60;65.80;;;;;;5107663;28;20055;-60
2021/08/03 12:28:58;;;;;;;122.32;71.18;;;16.70;65.70;;;;;;5108500;28;20052;-61
2021/08/03 12:31:32;;;;;;;113.35;69.22;;;16.60;66.00;;;;;;5108982;28;20035;-61
2021/08/03 12:34:19;;;;;;;105.85;63.67;;;16.60;66.10;;;;;;5108906;28;20042;-60
2021/08/03 12:36:50;;;;;;;102.25;62.33;;;16.60;66.10;;;;;;5108001;28;20039;-60
2021/08/03 12:39:40;;;;;;;93.95;58.30;;;16.60;66.00;;;;;;5107448;28;20046;-60
2021/08/03 12:44:54;;;;;;;93.68;57.67;;;16.60;65.90;;;;;;5107859;28;20062;-60
2021/08/03 12:47:26;;;;;;;85.00;53.30;;;16.50;65.90;;;;;;5107293;28;20040;-60
2021/08/03 12:50:04;;;;;;;;;;;16.50;65.90;;;;;;5108051;28;20024;-61
2021/08/03 12:52:31;;;;;;;82.47;50.78;;;16.50;65.80;;;;;;5089390;28;19904;-60
2021/08/03 12:55:03;;;;;;;80.15;51.42;;;16.50;65.80;;;;;;5089138;28;20020;-59
2021/08/03 12:57:51;;;;;;;77.03;51.00;;;16.50;66.00;;;;;;5106180;28;20022;-59
2021/08/03 13:00:38;;;;;;;76.03;48.38;;;16.50;66.10;;;;;;5107813;28;20165;-60
2021/08/03 13:03:10;;;;;;;72.15;47.50;;;16.40;66.20;;;;;;5107603;28;20697;-62